sensor_id;sensor_type;location;lat;lon;timestamp;P1;durP1;ratioP1;P2;durP2;ratioP2
84042;SDS011;74129;52.540;13.416;2023-11-25T00:01:22;3.90;;;1.90;;
84042;SDS011;74129;52.540;13.416;2023-11-25T00:03:48;4.50;;;2.10;;
84042;SDS011;74129;52.540;13.416;2023-11-25T00:06:14;4.90;;;3.20;;
84042;SDS011;74129;52.540;13.416;2023-11-25T00:08:41;4.30;;;2.30;;
84042;SDS011;74129;52.540;13.416;2023-11-25T00:11:07;7.30;;;3.00;;
84042;SDS011;74129;52.540;13.416;2023-11-25T00:13:35;7.00;;;2.50;;
84042;SDS011;74129;52.540;13.416;2023-11-25T00:16:01;5.10;;;2.40;;
84042;SDS011;74129;52.540;13.416;2023-11-25T00:18:27;5.20;;;2.10;;
84042;SDS011;74129;52.540;13.416;2023-11-25T00:20:54;5.60;;;2.00;;
84042;SDS011;74129;52.540;13.416;2023-11-25T00:23:20;4.20;;;1.90;;
84042;SDS011;74129;52.540;13.416;2023-11-25T00:25:47;3.20;;;1.90;;
84042;SDS011;74129;52.540;13.416;2023-11-25T00:28:14;3.90;;;2.10;;
84042;SDS011;74129;52.540;13.416;2023-11-25T00:30:40;3.50;;;1.90;;
84042;SDS011;74129;52.540;13.416;2023-11-25T00:33:06;5.80;;;1.90;;
84042;SDS011;74129;52.540;13.416;2023-11-25T00:35:33;6.10;;;2.10;;
84042;SDS011;74129;52.540;13.416;2023-11-25T00:37:59;8.00;;;1.70;;
84042;SDS011;74129;52.540;13.416;2023-11-25T00:40:26;3.50;;;2.10;;
84042;SDS011;74129;52.540;13.416;2023-11-25T00:42:53;5.90;;;2.20;;
84042;SDS011;74129;52.540;13.416;2023-11-25T00:45:20;4.70;;;2.00;;
84042;SDS011;74129;52.540;13.416;2023-11-25T00:47:51;5.30;;;2.30;;
84042;SDS011;74129;52.540;13.416;2023-11-25T00:50:18;2.00;;;1.50;;
84042;SDS011;74129;52.540;13.416;2023-11-25T00:52:45;4.60;;;2.40;;
84042;SDS011;74129;52.540;13.416;2023-11-25T00:55:12;3.10;;;1.60;;
84042;SDS011;74129;52.540;13.416;2023-11-25T00:57:38;4.90;;;2.20;;
84042;SDS011;74129;52.540;13.416;2023-11-25T01:00:05;2.90;;;1.90;;
84042;SDS011;74129;52.540;13.416;2023-11-25T01:02:32;2.40;;;1.20;;
84042;SDS011;74129;52.540;13.416;2023-11-25T01:04:58;3.20;;;2.10;;
84042;SDS011;74129;52.540;13.416;2023-11-25T01:07:25;3.30;;;1.70;;
84042;SDS011;74129;52.540;13.416;2023-11-25T01:09:51;4.80;;;1.60;;
84042;SDS011;74129;52.540;13.416;2023-11-25T01:12:17;2.80;;;1.50;;
84042;SDS011;74129;52.540;13.416;2023-11-25T01:14:44;4.10;;;1.80;;
84042;SDS011;74129;52.540;13.416;2023-11-25T01:17:10;4.30;;;1.60;;
84042;SDS011;74129;52.540;13.416;2023-11-25T01:19:37;4.40;;;1.70;;
84042;SDS011;74129;52.540;13.416;2023-11-25T01:22:04;3.00;;;1.30;;
84042;SDS011;74129;52.540;13.416;2023-11-25T01:24:30;2.40;;;1.70;;
84042;SDS011;74129;52.540;13.416;2023-11-25T01:26:57;2.50;;;1.60;;
84042;SDS011;74129;52.540;13.416;2023-11-25T01:29:24;3.00;;;1.60;;
84042;SDS011;74129;52.540;13.416;2023-11-25T01:31:50;3.70;;;1.90;;
84042;SDS011;74129;52.540;13.416;2023-11-25T01:34:17;3.20;;;1.90;;
84042;SDS011;74129;52.540;13.416;2023-11-25T01:36:43;1.90;;;1.30;;
84042;SDS011;74129;52.540;13.416;2023-11-25T01:39:09;3.60;;;1.50;;
84042;SDS011;74129;52.540;13.416;2023-11-25T01:41:36;2.30;;;1.30;;
84042;SDS011;74129;52.540;13.416;2023-11-25T01:44:02;4.80;;;2.10;;
84042;SDS011;74129;52.540;13.416;2023-11-25T01:46:32;3.50;;;1.30;;
84042;SDS011;74129;52.540;13.416;2023-11-25T01:49:07;3.00;;;1.80;;
84042;SDS011;74129;52.540;13.416;2023-11-25T01:51:36;4.40;;;1.90;;
84042;SDS011;74129;52.540;13.416;2023-11-25T01:54:04;2.30;;;1.50;;
84042;SDS011;74129;52.540;13.416;2023-11-25T01:56:33;3.50;;;1.60;;
84042;SDS011;74129;52.540;13.416;2023-11-25T01:59:00;2.20;;;1.20;;
84042;SDS011;74129;52.540;13.416;2023-11-25T02:01:28;3.20;;;2.30;;
84042;SDS011;74129;52.540;13.416;2023-11-25T02:03:55;5.20;;;1.40;;
84042;SDS011;74129;52.540;13.416;2023-11-25T02:06:22;2.90;;;1.80;;
84042;SDS011;74129;52.540;13.416;2023-11-25T02:08:52;5.20;;;2.20;;
84042;SDS011;74129;52.540;13.416;2023-11-25T02:11:18;2.60;;;1.70;;
84042;SDS011;74129;52.540;13.416;2023-11-25T02:13:45;8.60;;;1.70;;
84042;SDS011;74129;52.540;13.416;2023-11-25T02:16:12;2.00;;;1.40;;
84042;SDS011;74129;52.540;13.416;2023-11-25T02:18:39;3.80;;;1.90;;
84042;SDS011;74129;52.540;13.416;2023-11-25T02:21:06;3.80;;;2.00;;
84042;SDS011;74129;52.540;13.416;2023-11-25T02:23:32;4.50;;;1.50;;
84042;SDS011;74129;52.540;13.416;2023-11-25T02:25:58;3.00;;;1.90;;
84042;SDS011;74129;52.540;13.416;2023-11-25T02:28:25;4.50;;;1.80;;
84042;SDS011;74129;52.540;13.416;2023-11-25T02:30:52;2.70;;;1.30;;
84042;SDS011;74129;52.540;13.416;2023-11-25T02:33:19;1.90;;;1.30;;
84042;SDS011;74129;52.540;13.416;2023-11-25T02:35:48;3.10;;;1.70;;
84042;SDS011;74129;52.540;13.416;2023-11-25T02:38:15;6.80;;;1.20;;
84042;SDS011;74129;52.540;13.416;2023-11-25T02:40:44;2.00;;;1.30;;
84042;SDS011;74129;52.540;13.416;2023-11-25T02:43:11;4.50;;;1.40;;
84042;SDS011;74129;52.540;13.416;2023-11-25T02:45:38;2.10;;;1.20;;
84042;SDS011;74129;52.540;13.416;2023-11-25T02:48:05;1.70;;;1.10;;
84042;SDS011;74129;52.540;13.416;2023-11-25T02:50:32;2.40;;;1.40;;
84042;SDS011;74129;52.540;13.416;2023-11-25T02:53:02;1.70;;;1.00;;
84042;SDS011;74129;52.540;13.416;2023-11-25T02:55:31;3.90;;;1.50;;
84042;SDS011;74129;52.540;13.416;2023-11-25T02:57:57;2.90;;;1.40;;
84042;SDS011;74129;52.540;13.416;2023-11-25T03:00:23;4.20;;;1.60;;
84042;SDS011;74129;52.540;13.416;2023-11-25T03:02:50;2.80;;;1.10;;
84042;SDS011;74129;52.540;13.416;2023-11-25T03:05:20;2.40;;;1.40;;
84042;SDS011;74129;52.540;13.416;2023-11-25T03:07:48;3.20;;;1.80;;
84042;SDS011;74129;52.540;13.416;2023-11-25T03:10:16;2.80;;;1.10;;
84042;SDS011;74129;52.540;13.416;2023-11-25T03:12:43;2.30;;;1.50;;
84042;SDS011;74129;52.540;13.416;2023-11-25T03:15:10;1.20;;;1.00;;
84042;SDS011;74129;52.540;13.416;2023-11-25T03:17:40;7.60;;;1.50;;
84042;SDS011;74129;52.540;13.416;2023-11-25T03:20:06;3.30;;;1.20;;
84042;SDS011;74129;52.540;13.416;2023-11-25T03:22:33;2.30;;;1.30;;
84042;SDS011;74129;52.540;13.416;2023-11-25T03:24:59;3.60;;;1.20;;
84042;SDS011;74129;52.540;13.416;2023-11-25T03:27:27;2.90;;;1.50;;
84042;SDS011;74129;52.540;13.416;2023-11-25T03:30:00;6.80;;;2.20;;
84042;SDS011;74129;52.540;13.416;2023-11-25T03:32:26;2.10;;;1.20;;
84042;SDS011;74129;52.540;13.416;2023-11-25T03:34:53;3.80;;;1.30;;
84042;SDS011;74129;52.540;13.416;2023-11-25T03:37:21;2.50;;;1.00;;
84042;SDS011;74129;52.540;13.416;2023-11-25T03:39:48;6.30;;;1.60;;
84042;SDS011;74129;52.540;13.416;2023-11-25T03:42:16;4.60;;;1.10;;
84042;SDS011;74129;52.540;13.416;2023-11-25T03:44:46;5.60;;;1.80;;
84042;SDS011;74129;52.540;13.416;2023-11-25T03:47:13;3.80;;;1.20;;
84042;SDS011;74129;52.540;13.416;2023-11-25T03:49:40;4.10;;;1.80;;
84042;SDS011;74129;52.540;13.416;2023-11-25T03:52:06;1.70;;;1.10;;
84042;SDS011;74129;52.540;13.416;2023-11-25T03:54:33;4.10;;;1.60;;
84042;SDS011;74129;52.540;13.416;2023-11-25T03:56:59;1.20;;;1.10;;
84042;SDS011;74129;52.540;13.416;2023-11-25T03:59:26;3.00;;;1.20;;
84042;SDS011;74129;52.540;13.416;2023-11-25T04:01:52;0.80;;;0.80;;
84042;SDS011;74129;52.540;13.416;2023-11-25T04:04:19;6.90;;;1.70;;
84042;SDS011;74129;52.540;13.416;2023-11-25T04:06:46;1.20;;;1.10;;
84042;SDS011;74129;52.540;13.416;2023-11-25T04:09:13;3.50;;;1.70;;
84042;SDS011;74129;52.540;13.416;2023-11-25T04:11:43;4.20;;;1.80;;
84042;SDS011;74129;52.540;13.416;2023-11-25T04:14:09;6.60;;;2.10;;
84042;SDS011;74129;52.540;13.416;2023-11-25T04:16:35;5.80;;;1.80;;
84042;SDS011;74129;52.540;13.416;2023-11-25T04:19:02;4.00;;;1.50;;
84042;SDS011;74129;52.540;13.416;2023-11-25T04:21:29;2.90;;;1.20;;
84042;SDS011;74129;52.540;13.416;2023-11-25T04:23:56;2.90;;;1.10;;
84042;SDS011;74129;52.540;13.416;2023-11-25T04:26:22;2.60;;;1.50;;
84042;SDS011;74129;52.540;13.416;2023-11-25T04:28:51;6.90;;;1.60;;
84042;SDS011;74129;52.540;13.416;2023-11-25T04:31:17;3.00;;;1.40;;
84042;SDS011;74129;52.540;13.416;2023-11-25T04:33:43;8.90;;;2.00;;
84042;SDS011;74129;52.540;13.416;2023-11-25T04:36:10;2.30;;;1.50;;
84042;SDS011;74129;52.540;13.416;2023-11-25T04:38:36;4.00;;;2.30;;
84042;SDS011;74129;52.540;13.416;2023-11-25T04:41:04;1.90;;;1.10;;
84042;SDS011;74129;52.540;13.416;2023-11-25T04:43:30;5.60;;;2.30;;
84042;SDS011;74129;52.540;13.416;2023-11-25T04:45:56;5.70;;;2.20;;
84042;SDS011;74129;52.540;13.416;2023-11-25T04:48:23;3.60;;;1.80;;
84042;SDS011;74129;52.540;13.416;2023-11-25T04:50:50;2.60;;;1.70;;
84042;SDS011;74129;52.540;13.416;2023-11-25T04:53:16;4.00;;;2.00;;
84042;SDS011;74129;52.540;13.416;2023-11-25T04:55:43;3.10;;;1.40;;
84042;SDS011;74129;52.540;13.416;2023-11-25T04:58:10;4.80;;;2.20;;
84042;SDS011;74129;52.540;13.416;2023-11-25T05:00:36;2.60;;;1.80;;
84042;SDS011;74129;52.540;13.416;2023-11-25T05:03:03;3.70;;;1.80;;
84042;SDS011;74129;52.540;13.416;2023-11-25T05:05:31;2.40;;;1.50;;
84042;SDS011;74129;52.540;13.416;2023-11-25T05:07:58;2.30;;;1.40;;
84042;SDS011;74129;52.540;13.416;2023-11-25T05:10:25;4.80;;;2.00;;
84042;SDS011;74129;52.540;13.416;2023-11-25T05:12:54;3.80;;;1.60;;
84042;SDS011;74129;52.540;13.416;2023-11-25T05:15:20;6.00;;;2.00;;
84042;SDS011;74129;52.540;13.416;2023-11-25T05:17:48;2.50;;;1.00;;
84042;SDS011;74129;52.540;13.416;2023-11-25T05:20:15;3.70;;;1.60;;
84042;SDS011;74129;52.540;13.416;2023-11-25T05:22:44;3.60;;;1.50;;
84042;SDS011;74129;52.540;13.416;2023-11-25T05:25:11;5.90;;;2.40;;
84042;SDS011;74129;52.540;13.416;2023-11-25T05:27:42;5.70;;;1.80;;
84042;SDS011;74129;52.540;13.416;2023-11-25T05:30:09;3.20;;;1.60;;
84042;SDS011;74129;52.540;13.416;2023-11-25T05:32:40;4.90;;;2.00;;
84042;SDS011;74129;52.540;13.416;2023-11-25T05:35:08;7.50;;;1.90;;
84042;SDS011;74129;52.540;13.416;2023-11-25T05:37:36;5.60;;;1.40;;
84042;SDS011;74129;52.540;13.416;2023-11-25T05:40:02;5.40;;;1.60;;
84042;SDS011;74129;52.540;13.416;2023-11-25T05:42:34;3.40;;;1.90;;
84042;SDS011;74129;52.540;13.416;2023-11-25T05:45:04;3.60;;;1.60;;
84042;SDS011;74129;52.540;13.416;2023-11-25T05:47:34;3.10;;;1.40;;
84042;SDS011;74129;52.540;13.416;2023-11-25T05:50:01;3.80;;;2.00;;
84042;SDS011;74129;52.540;13.416;2023-11-25T05:52:28;2.00;;;1.20;;
84042;SDS011;74129;52.540;13.416;2023-11-25T05:54:54;2.30;;;1.60;;
84042;SDS011;74129;52.540;13.416;2023-11-25T05:57:22;2.00;;;1.40;;
84042;SDS011;74129;52.540;13.416;2023-11-25T05:59:48;6.80;;;1.70;;
84042;SDS011;74129;52.540;13.416;2023-11-25T06:02:15;4.10;;;1.60;;
84042;SDS011;74129;52.540;13.416;2023-11-25T06:04:41;2.60;;;1.30;;
84042;SDS011;74129;52.540;13.416;2023-11-25T06:07:08;3.30;;;1.20;;
84042;SDS011;74129;52.540;13.416;2023-11-25T06:09:34;4.60;;;1.60;;
84042;SDS011;74129;52.540;13.416;2023-11-25T06:12:01;5.00;;;1.50;;
84042;SDS011;74129;52.540;13.416;2023-11-25T06:14:27;4.60;;;1.90;;
84042;SDS011;74129;52.540;13.416;2023-11-25T06:16:54;6.10;;;1.90;;
84042;SDS011;74129;52.540;13.416;2023-11-25T06:19:23;2.70;;;1.40;;
84042;SDS011;74129;52.540;13.416;2023-11-25T06:21:50;8.60;;;2.10;;
84042;SDS011;74129;52.540;13.416;2023-11-25T06:24:16;7.00;;;1.50;;
84042;SDS011;74129;52.540;13.416;2023-11-25T06:26:42;3.10;;;1.90;;
84042;SDS011;74129;52.540;13.416;2023-11-25T06:29:10;7.30;;;1.50;;
84042;SDS011;74129;52.540;13.416;2023-11-25T06:31:37;6.40;;;2.20;;
84042;SDS011;74129;52.540;13.416;2023-11-25T06:34:05;5.80;;;1.90;;
84042;SDS011;74129;52.540;13.416;2023-11-25T06:36:32;5.40;;;1.80;;
84042;SDS011;74129;52.540;13.416;2023-11-25T06:38:58;3.60;;;1.40;;
84042;SDS011;74129;52.540;13.416;2023-11-25T06:41:25;3.50;;;1.60;;
84042;SDS011;74129;52.540;13.416;2023-11-25T06:43:53;5.20;;;1.80;;
84042;SDS011;74129;52.540;13.416;2023-11-25T06:46:20;3.70;;;1.60;;
84042;SDS011;74129;52.540;13.416;2023-11-25T06:48:48;1.10;;;1.00;;
84042;SDS011;74129;52.540;13.416;2023-11-25T06:51:15;5.50;;;1.70;;
84042;SDS011;74129;52.540;13.416;2023-11-25T06:53:43;2.80;;;1.30;;
84042;SDS011;74129;52.540;13.416;2023-11-25T06:56:09;3.70;;;1.40;;
84042;SDS011;74129;52.540;13.416;2023-11-25T06:58:39;2.30;;;1.40;;
84042;SDS011;74129;52.540;13.416;2023-11-25T07:01:06;4.00;;;1.70;;
84042;SDS011;74129;52.540;13.416;2023-11-25T07:03:32;3.70;;;1.90;;
84042;SDS011;74129;52.540;13.416;2023-11-25T07:05:59;3.20;;;1.40;;
84042;SDS011;74129;52.540;13.416;2023-11-25T07:08:25;6.10;;;1.30;;
84042;SDS011;74129;52.540;13.416;2023-11-25T07:10:52;5.50;;;1.80;;
84042;SDS011;74129;52.540;13.416;2023-11-25T07:13:25;3.70;;;1.80;;
84042;SDS011;74129;52.540;13.416;2023-11-25T07:15:54;3.20;;;1.40;;
84042;SDS011;74129;52.540;13.416;2023-11-25T07:18:22;4.30;;;1.90;;
84042;SDS011;74129;52.540;13.416;2023-11-25T07:20:49;5.80;;;1.50;;
84042;SDS011;74129;52.540;13.416;2023-11-25T07:23:15;4.30;;;1.70;;
84042;SDS011;74129;52.540;13.416;2023-11-25T07:25:42;4.60;;;2.00;;
84042;SDS011;74129;52.540;13.416;2023-11-25T07:28:11;2.90;;;1.40;;
84042;SDS011;74129;52.540;13.416;2023-11-25T07:30:39;7.70;;;2.10;;
84042;SDS011;74129;52.540;13.416;2023-11-25T07:33:08;4.70;;;1.50;;
84042;SDS011;74129;52.540;13.416;2023-11-25T07:35:36;3.80;;;1.10;;
84042;SDS011;74129;52.540;13.416;2023-11-25T07:38:03;4.60;;;1.70;;
84042;SDS011;74129;52.540;13.416;2023-11-25T07:40:30;4.30;;;1.30;;
84042;SDS011;74129;52.540;13.416;2023-11-25T07:42:56;2.10;;;1.40;;
84042;SDS011;74129;52.540;13.416;2023-11-25T07:45:23;5.70;;;2.00;;
84042;SDS011;74129;52.540;13.416;2023-11-25T07:47:49;8.20;;;2.20;;
84042;SDS011;74129;52.540;13.416;2023-11-25T07:50:15;4.30;;;1.90;;
84042;SDS011;74129;52.540;13.416;2023-11-25T07:52:42;5.00;;;1.80;;
84042;SDS011;74129;52.540;13.416;2023-11-25T07:55:09;2.20;;;1.60;;
84042;SDS011;74129;52.540;13.416;2023-11-25T07:57:35;13.60;;;2.70;;
84042;SDS011;74129;52.540;13.416;2023-11-25T08:00:06;5.40;;;2.10;;
84042;SDS011;74129;52.540;13.416;2023-11-25T08:02:33;3.70;;;2.10;;
84042;SDS011;74129;52.540;13.416;2023-11-25T08:04:59;7.00;;;1.70;;
84042;SDS011;74129;52.540;13.416;2023-11-25T08:07:26;2.20;;;1.50;;
84042;SDS011;74129;52.540;13.416;2023-11-25T08:09:53;6.90;;;1.90;;
84042;SDS011;74129;52.540;13.416;2023-11-25T08:12:19;4.40;;;1.80;;
84042;SDS011;74129;52.540;13.416;2023-11-25T08:14:45;4.80;;;2.90;;
84042;SDS011;74129;52.540;13.416;2023-11-25T08:17:13;7.40;;;2.00;;
84042;SDS011;74129;52.540;13.416;2023-11-25T08:19:40;3.90;;;1.50;;
84042;SDS011;74129;52.540;13.416;2023-11-25T08:22:07;5.10;;;1.60;;
84042;SDS011;74129;52.540;13.416;2023-11-25T08:24:33;7.00;;;2.20;;
84042;SDS011;74129;52.540;13.416;2023-11-25T08:27:00;4.40;;;1.80;;
84042;SDS011;74129;52.540;13.416;2023-11-25T08:29:27;4.60;;;2.20;;
84042;SDS011;74129;52.540;13.416;2023-11-25T08:31:53;4.10;;;1.80;;
84042;SDS011;74129;52.540;13.416;2023-11-25T08:34:20;7.70;;;2.20;;
84042;SDS011;74129;52.540;13.416;2023-11-25T08:36:47;6.50;;;1.80;;
84042;SDS011;74129;52.540;13.416;2023-11-25T08:39:19;5.40;;;2.10;;
84042;SDS011;74129;52.540;13.416;2023-11-25T08:41:47;9.00;;;2.20;;
84042;SDS011;74129;52.540;13.416;2023-11-25T08:44:16;5.60;;;1.90;;
84042;SDS011;74129;52.540;13.416;2023-11-25T08:46:42;3.30;;;1.50;;
84042;SDS011;74129;52.540;13.416;2023-11-25T08:49:09;3.50;;;1.60;;
84042;SDS011;74129;52.540;13.416;2023-11-25T08:51:40;5.80;;;2.20;;
84042;SDS011;74129;52.540;13.416;2023-11-25T08:56:34;4.30;;;2.10;;
84042;SDS011;74129;52.540;13.416;2023-11-25T08:59:00;2.60;;;1.50;;
84042;SDS011;74129;52.540;13.416;2023-11-25T09:01:28;4.70;;;2.10;;
84042;SDS011;74129;52.540;13.416;2023-11-25T09:03:58;4.80;;;1.90;;
84042;SDS011;74129;52.540;13.416;2023-11-25T09:06:25;6.20;;;1.80;;
84042;SDS011;74129;52.540;13.416;2023-11-25T09:08:51;5.60;;;1.80;;
84042;SDS011;74129;52.540;13.416;2023-11-25T09:11:18;3.40;;;1.40;;
84042;SDS011;74129;52.540;13.416;2023-11-25T09:13:44;3.90;;;1.70;;
84042;SDS011;74129;52.540;13.416;2023-11-25T09:16:10;4.90;;;1.90;;
84042;SDS011;74129;52.540;13.416;2023-11-25T09:18:37;2.90;;;1.80;;
84042;SDS011;74129;52.540;13.416;2023-11-25T09:21:03;2.60;;;1.90;;
84042;SDS011;74129;52.540;13.416;2023-11-25T09:23:30;5.00;;;1.70;;
84042;SDS011;74129;52.540;13.416;2023-11-25T09:25:56;3.10;;;1.80;;
84042;SDS011;74129;52.540;13.416;2023-11-25T09:28:22;2.80;;;1.70;;
84042;SDS011;74129;52.540;13.416;2023-11-25T09:30:50;5.80;;;1.80;;
84042;SDS011;74129;52.540;13.416;2023-11-25T09:33:17;2.50;;;1.70;;
84042;SDS011;74129;52.540;13.416;2023-11-25T09:35:43;4.30;;;1.80;;
84042;SDS011;74129;52.540;13.416;2023-11-25T09:38:09;2.80;;;1.80;;
84042;SDS011;74129;52.540;13.416;2023-11-25T09:40:36;5.10;;;1.90;;
84042;SDS011;74129;52.540;13.416;2023-11-25T09:43:03;4.00;;;1.70;;
84042;SDS011;74129;52.540;13.416;2023-11-25T09:45:30;5.60;;;2.10;;
84042;SDS011;74129;52.540;13.416;2023-11-25T09:47:56;4.50;;;1.70;;
84042;SDS011;74129;52.540;13.416;2023-11-25T09:50:23;5.10;;;1.80;;
84042;SDS011;74129;52.540;13.416;2023-11-25T09:52:53;4.70;;;1.70;;
84042;SDS011;74129;52.540;13.416;2023-11-25T09:55:21;4.10;;;1.70;;
84042;SDS011;74129;52.540;13.416;2023-11-25T09:57:56;4.70;;;2.20;;
84042;SDS011;74129;52.540;13.416;2023-11-25T10:00:28;4.60;;;2.00;;
84042;SDS011;74129;52.540;13.416;2023-11-25T10:02:55;5.40;;;2.50;;
84042;SDS011;74129;52.540;13.416;2023-11-25T10:05:24;6.20;;;2.50;;
84042;SDS011;74129;52.540;13.416;2023-11-25T10:07:50;7.60;;;2.20;;
84042;SDS011;74129;52.540;13.416;2023-11-25T10:10:17;6.50;;;2.40;;
84042;SDS011;74129;52.540;13.416;2023-11-25T10:12:50;5.40;;;2.40;;
84042;SDS011;74129;52.540;13.416;2023-11-25T10:15:16;5.60;;;2.70;;
84042;SDS011;74129;52.540;13.416;2023-11-25T10:17:44;4.00;;;1.80;;
84042;SDS011;74129;52.540;13.416;2023-11-25T10:20:13;8.30;;;2.60;;
84042;SDS011;74129;52.540;13.416;2023-11-25T10:25:27;7.10;;;2.30;;
84042;SDS011;74129;52.540;13.416;2023-11-25T10:27:54;9.10;;;2.90;;
84042;SDS011;74129;52.540;13.416;2023-11-25T10:30:21;3.70;;;1.90;;
84042;SDS011;74129;52.540;13.416;2023-11-25T10:32:49;4.50;;;2.00;;
84042;SDS011;74129;52.540;13.416;2023-11-25T10:35:18;4.10;;;2.00;;
84042;SDS011;74129;52.540;13.416;2023-11-25T10:37:45;5.50;;;1.80;;
84042;SDS011;74129;52.540;13.416;2023-11-25T10:40:12;7.30;;;2.10;;
84042;SDS011;74129;52.540;13.416;2023-11-25T10:42:43;10.60;;;3.50;;
84042;SDS011;74129;52.540;13.416;2023-11-25T10:45:18;9.00;;;3.10;;
84042;SDS011;74129;52.540;13.416;2023-11-25T10:47:47;8.00;;;2.50;;
84042;SDS011;74129;52.540;13.416;2023-11-25T10:50:14;4.50;;;2.30;;
84042;SDS011;74129;52.540;13.416;2023-11-25T10:52:41;4.60;;;2.30;;
84042;SDS011;74129;52.540;13.416;2023-11-25T10:55:09;9.70;;;2.30;;
84042;SDS011;74129;52.540;13.416;2023-11-25T10:57:36;5.50;;;2.60;;
84042;SDS011;74129;52.540;13.416;2023-11-25T11:00:02;6.60;;;2.60;;
84042;SDS011;74129;52.540;13.416;2023-11-25T11:02:39;8.30;;;2.40;;
84042;SDS011;74129;52.540;13.416;2023-11-25T11:05:31;4.20;;;2.30;;
84042;SDS011;74129;52.540;13.416;2023-11-25T11:08:07;4.90;;;2.40;;
84042;SDS011;74129;52.540;13.416;2023-11-25T11:10:41;6.30;;;2.70;;
84042;SDS011;74129;52.540;13.416;2023-11-25T11:13:13;2.90;;;2.00;;
84042;SDS011;74129;52.540;13.416;2023-11-25T11:15:44;5.00;;;2.50;;
84042;SDS011;74129;52.540;13.416;2023-11-25T11:18:18;5.00;;;3.20;;
84042;SDS011;74129;52.540;13.416;2023-11-25T11:23:18;4.60;;;3.00;;
84042;SDS011;74129;52.540;13.416;2023-11-25T11:25:51;5.60;;;2.20;;
84042;SDS011;74129;52.540;13.416;2023-11-25T11:34:27;5.60;;;3.30;;
84042;SDS011;74129;52.540;13.416;2023-11-25T11:36:54;3.60;;;1.90;;
84042;SDS011;74129;52.540;13.416;2023-11-25T11:39:36;3.70;;;2.10;;
84042;SDS011;74129;52.540;13.416;2023-11-25T11:44:58;3.80;;;2.20;;
84042;SDS011;74129;52.540;13.416;2023-11-25T11:47:47;5.00;;;2.50;;
84042;SDS011;74129;52.540;13.416;2023-11-25T11:50:18;4.80;;;2.30;;
84042;SDS011;74129;52.540;13.416;2023-11-25T11:53:11;4.80;;;2.70;;
84042;SDS011;74129;52.540;13.416;2023-11-25T11:55:54;3.40;;;2.50;;
84042;SDS011;74129;52.540;13.416;2023-11-25T11:58:22;4.40;;;2.60;;
84042;SDS011;74129;52.540;13.416;2023-11-25T12:03:26;4.10;;;1.90;;
84042;SDS011;74129;52.540;13.416;2023-11-25T12:05:54;2.50;;;1.50;;
84042;SDS011;74129;52.540;13.416;2023-11-25T12:08:21;3.00;;;1.80;;
84042;SDS011;74129;52.540;13.416;2023-11-25T12:10:49;2.90;;;2.30;;
84042;SDS011;74129;52.540;13.416;2023-11-25T12:13:26;2.60;;;2.00;;
84042;SDS011;74129;52.540;13.416;2023-11-25T12:15:53;2.40;;;1.80;;
84042;SDS011;74129;52.540;13.416;2023-11-25T12:18:20;3.90;;;2.20;;
84042;SDS011;74129;52.540;13.416;2023-11-25T12:20:47;2.80;;;2.00;;
84042;SDS011;74129;52.540;13.416;2023-11-25T12:23:13;2.60;;;1.90;;
84042;SDS011;74129;52.540;13.416;2023-11-25T12:25:40;2.60;;;1.80;;
84042;SDS011;74129;52.540;13.416;2023-11-25T12:28:08;3.90;;;2.10;;
84042;SDS011;74129;52.540;13.416;2023-11-25T12:30:36;2.70;;;2.20;;
84042;SDS011;74129;52.540;13.416;2023-11-25T12:33:04;3.20;;;2.10;;
84042;SDS011;74129;52.540;13.416;2023-11-25T12:35:37;4.40;;;2.30;;
84042;SDS011;74129;52.540;13.416;2023-11-25T12:38:06;2.70;;;1.80;;
84042;SDS011;74129;52.540;13.416;2023-11-25T12:40:33;3.90;;;1.90;;
84042;SDS011;74129;52.540;13.416;2023-11-25T12:43:05;2.40;;;1.70;;
84042;SDS011;74129;52.540;13.416;2023-11-25T12:45:42;2.40;;;1.90;;
84042;SDS011;74129;52.540;13.416;2023-11-25T12:48:10;3.30;;;2.60;;
84042;SDS011;74129;52.540;13.416;2023-11-25T12:53:28;4.20;;;2.40;;
84042;SDS011;74129;52.540;13.416;2023-11-25T12:55:54;2.10;;;1.80;;
84042;SDS011;74129;52.540;13.416;2023-11-25T12:58:23;2.80;;;2.20;;
84042;SDS011;74129;52.540;13.416;2023-11-25T13:00:53;2.40;;;2.00;;
84042;SDS011;74129;52.540;13.416;2023-11-25T13:03:28;3.20;;;2.40;;
84042;SDS011;74129;52.540;13.416;2023-11-25T13:06:00;3.00;;;2.00;;
84042;SDS011;74129;52.540;13.416;2023-11-25T13:08:31;4.40;;;3.00;;
84042;SDS011;74129;52.540;13.416;2023-11-25T13:11:04;4.80;;;3.20;;
84042;SDS011;74129;52.540;13.416;2023-11-25T13:13:35;2.40;;;1.90;;
84042;SDS011;74129;52.540;13.416;2023-11-25T13:16:02;3.20;;;2.00;;
84042;SDS011;74129;52.540;13.416;2023-11-25T13:18:34;4.30;;;2.20;;
84042;SDS011;74129;52.540;13.416;2023-11-25T13:21:01;3.20;;;2.20;;
84042;SDS011;74129;52.540;13.416;2023-11-25T13:23:33;4.70;;;2.90;;
84042;SDS011;74129;52.540;13.416;2023-11-25T13:26:00;2.30;;;2.10;;
84042;SDS011;74129;52.540;13.416;2023-11-25T13:28:27;6.10;;;2.80;;
84042;SDS011;74129;52.540;13.416;2023-11-25T13:30:53;3.90;;;2.60;;
84042;SDS011;74129;52.540;13.416;2023-11-25T13:33:20;3.00;;;2.10;;
84042;SDS011;74129;52.540;13.416;2023-11-25T13:35:46;3.10;;;2.00;;
84042;SDS011;74129;52.540;13.416;2023-11-25T13:38:13;3.90;;;2.70;;
84042;SDS011;74129;52.540;13.416;2023-11-25T13:40:41;3.90;;;2.60;;
84042;SDS011;74129;52.540;13.416;2023-11-25T13:43:09;4.70;;;3.20;;
84042;SDS011;74129;52.540;13.416;2023-11-25T13:45:40;4.70;;;3.00;;
84042;SDS011;74129;52.540;13.416;2023-11-25T13:48:10;3.70;;;2.70;;
84042;SDS011;74129;52.540;13.416;2023-11-25T13:50:42;5.00;;;2.60;;
84042;SDS011;74129;52.540;13.416;2023-11-25T13:53:09;3.80;;;2.40;;
84042;SDS011;74129;52.540;13.416;2023-11-25T13:55:36;3.30;;;2.30;;
84042;SDS011;74129;52.540;13.416;2023-11-25T13:58:11;4.20;;;2.20;;
84042;SDS011;74129;52.540;13.416;2023-11-25T14:00:38;4.10;;;2.70;;
84042;SDS011;74129;52.540;13.416;2023-11-25T14:03:05;3.90;;;2.00;;
84042;SDS011;74129;52.540;13.416;2023-11-25T14:05:36;5.00;;;2.30;;
84042;SDS011;74129;52.540;13.416;2023-11-25T14:08:04;3.80;;;2.20;;
84042;SDS011;74129;52.540;13.416;2023-11-25T14:10:34;3.80;;;2.20;;
84042;SDS011;74129;52.540;13.416;2023-11-25T14:13:04;3.20;;;2.30;;
84042;SDS011;74129;52.540;13.416;2023-11-25T14:15:32;5.20;;;2.30;;
84042;SDS011;74129;52.540;13.416;2023-11-25T14:17:59;4.10;;;2.40;;
84042;SDS011;74129;52.540;13.416;2023-11-25T14:20:27;5.00;;;2.80;;
84042;SDS011;74129;52.540;13.416;2023-11-25T14:22:54;2.70;;;1.60;;
84042;SDS011;74129;52.540;13.416;2023-11-25T14:25:22;7.30;;;4.10;;
84042;SDS011;74129;52.540;13.416;2023-11-25T14:27:50;7.50;;;3.90;;
84042;SDS011;74129;52.540;13.416;2023-11-25T14:30:17;5.10;;;2.90;;
84042;SDS011;74129;52.540;13.416;2023-11-25T14:32:44;3.70;;;2.60;;
84042;SDS011;74129;52.540;13.416;2023-11-25T14:35:13;4.50;;;2.20;;
84042;SDS011;74129;52.540;13.416;2023-11-25T14:37:41;7.20;;;4.30;;
84042;SDS011;74129;52.540;13.416;2023-11-25T14:40:10;5.00;;;2.80;;
84042;SDS011;74129;52.540;13.416;2023-11-25T14:42:40;3.90;;;3.00;;
84042;SDS011;74129;52.540;13.416;2023-11-25T14:45:07;6.50;;;3.60;;
84042;SDS011;74129;52.540;13.416;2023-11-25T14:47:34;6.60;;;3.30;;
84042;SDS011;74129;52.540;13.416;2023-11-25T14:50:00;6.50;;;3.30;;
84042;SDS011;74129;52.540;13.416;2023-11-25T14:52:27;7.10;;;3.30;;
84042;SDS011;74129;52.540;13.416;2023-11-25T14:54:53;4.30;;;3.50;;
84042;SDS011;74129;52.540;13.416;2023-11-25T14:57:20;6.70;;;3.50;;
84042;SDS011;74129;52.540;13.416;2023-11-25T14:59:47;9.20;;;3.70;;